Prairie Grove, Texas
Current Conditions -  °F | °C
As of 6:35 PM on Saturday 25 Oct 2014 (Local Time) from KLXY Reporting Station
Clear Clear  
Wind Chill: 79°   Ceiling: Unl
Heat Index: 81°   Visibility: 10mi
Dew Point: 63°   Wind: 3mph
Humidity: 57%   Direction: 160°SSE
Pressure: 30.07"   Gusts: NA
Location:  31.6887°N, 96.511°W
Report Text: KLXY 252335Z AUTO 16003KT 10SM CLR 26/17 A3007 RMK AO2 T02620171
Loading
Personal Weather Stations






























Interactive Weather Map
Tropical Storm Tracking
New forecast layout! Learn more

10-Day Weather Forecast

Advertisements
Track Severe Weather on mobile